createdAt,value
2019-05-30T00:00:16.963Z,0.00
2019-05-30T00:01:09.327Z,0.00
2019-05-30T00:02:08.219Z,0.00
2019-05-30T00:03:08.279Z,0.00
2019-05-30T00:04:08.275Z,0.00
2019-05-30T00:05:08.206Z,0.00
2019-05-30T00:06:08.242Z,0.00
2019-05-30T00:07:10.925Z,0.00
2019-05-30T00:08:08.166Z,0.00
2019-05-30T00:09:08.258Z,0.00
2019-05-30T00:10:08.170Z,0.00
2019-05-30T00:11:08.117Z,0.00
2019-05-30T00:12:08.107Z,0.00
2019-05-30T00:13:08.118Z,0.00
2019-05-30T00:14:08.120Z,0.00
2019-05-30T00:15:08.074Z,0.00
2019-05-30T00:16:08.064Z,0.00
2019-05-30T00:17:08.052Z,0.00
2019-05-30T00:18:08.049Z,0.00
2019-05-30T00:19:08.070Z,0.00
2019-05-30T00:20:08.025Z,0.00
2019-05-30T00:21:08.009Z,0.00
2019-05-30T00:22:08.014Z,0.00
2019-05-30T00:23:09.166Z,0.00
2019-05-30T00:24:08.299Z,0.00
2019-05-30T00:25:08.005Z,0.00
2019-05-30T00:26:07.971Z,0.00
2019-05-30T00:27:07.958Z,0.00
2019-05-30T00:28:08.056Z,0.00
2019-05-30T00:29:07.924Z,0.00
2019-05-30T00:30:23.386Z,0.00
2019-05-30T00:31:08.939Z,0.00
2019-05-30T00:32:07.974Z,0.00
2019-05-30T00:33:07.890Z,0.00
2019-05-30T00:34:07.886Z,0.00
2019-05-30T00:35:08.866Z,0.00
2019-05-30T00:36:07.902Z,0.00
2019-05-30T00:37:07.863Z,0.00
2019-05-30T00:38:07.901Z,0.00
2019-05-30T00:39:07.814Z,0.00
2019-05-30T00:40:07.804Z,0.00
2019-05-30T00:41:07.839Z,0.00
2019-05-30T00:42:07.778Z,0.00
2019-05-30T00:43:07.771Z,0.00
2019-05-30T00:44:07.803Z,0.00
2019-05-30T00:45:20.031Z,0.00
2019-05-30T00:46:08.737Z,0.00
2019-05-30T00:47:07.725Z,0.00
2019-05-30T00:48:07.719Z,0.00
2019-05-30T00:49:07.742Z,0.00
2019-05-30T00:50:07.694Z,0.00
2019-05-30T00:51:07.680Z,0.00
2019-05-30T00:52:07.672Z,0.00
2019-05-30T00:53:07.668Z,0.00
2019-05-30T00:54:07.657Z,0.00
2019-05-30T00:55:07.673Z,0.00
2019-05-30T00:56:07.627Z,0.00
2019-05-30T00:57:07.649Z,0.00
2019-05-30T00:58:07.626Z,0.00
2019-05-30T00:59:07.612Z,0.00
2019-05-30T01:00:07.585Z,0.00
2019-05-30T01:01:07.630Z,0.00
2019-05-30T01:02:07.566Z,0.00
2019-05-30T01:03:09.048Z,0.00
2019-05-30T01:04:07.555Z,0.00
2019-05-30T01:05:08.067Z,0.00
2019-05-30T01:06:07.554Z,0.00
2019-05-30T01:07:07.511Z,0.00
2019-05-30T01:08:07.503Z,0.00
2019-05-30T01:09:07.640Z,0.00
2019-05-30T01:10:07.688Z,0.00
2019-05-30T01:11:07.530Z,0.00
2019-05-30T01:12:07.572Z,0.00
2019-05-30T01:13:07.444Z,0.00
2019-05-30T01:14:07.658Z,0.00
2019-05-30T01:15:07.609Z,0.00
2019-05-30T01:16:07.468Z,0.00
2019-05-30T01:17:07.532Z,0.00
2019-05-30T01:18:07.442Z,0.00
2019-05-30T01:19:07.498Z,0.00
2019-05-30T01:20:07.604Z,0.00
2019-05-30T01:21:07.535Z,0.00
2019-05-30T01:22:07.712Z,0.00
2019-05-30T01:23:07.532Z,0.00
2019-05-30T01:24:07.799Z,0.00
2019-05-30T01:25:07.928Z,0.00
2019-05-30T01:26:07.653Z,0.00
2019-05-30T01:27:07.681Z,0.00
2019-05-30T01:28:07.884Z,0.00
2019-05-30T01:29:07.781Z,0.00
2019-05-30T01:30:07.959Z,0.00
2019-05-30T01:31:10.180Z,0.00
2019-05-30T01:32:07.635Z,0.00
2019-05-30T01:33:08.032Z,0.00
2019-05-30T01:34:07.908Z,0.00
2019-05-30T01:35:08.124Z,0.00
2019-05-30T01:36:07.942Z,0.00
2019-05-30T01:37:07.877Z,0.00
2019-05-30T01:38:08.079Z,0.00
2019-05-30T01:39:08.137Z,0.00
2019-05-30T01:40:08.794Z,0.00
2019-05-30T01:41:08.088Z,0.00
2019-05-30T01:42:07.990Z,0.00
2019-05-30T01:43:08.280Z,0.00
2019-05-30T01:44:08.208Z,0.00
2019-05-30T01:45:08.385Z,0.00
2019-05-30T01:46:08.264Z,0.00
2019-05-30T01:47:08.306Z,0.00
2019-05-30T01:48:08.429Z,0.00
2019-05-30T01:49:07.057Z,0.00
2019-05-30T01:50:07.063Z,0.00
2019-05-30T01:51:07.031Z,0.00
2019-05-30T01:52:07.021Z,0.00
2019-05-30T01:53:07.012Z,0.00
2019-05-30T01:54:07.010Z,0.00
2019-05-30T01:55:07.032Z,0.00
2019-05-30T01:56:06.983Z,0.00
2019-05-30T01:57:06.970Z,0.00
2019-05-30T01:58:07.271Z,0.00
2019-05-30T01:59:06.945Z,0.00
2019-05-30T02:00:19.553Z,0.00
2019-05-30T02:01:23.734Z,0.00
2019-05-30T02:02:09.105Z,0.00
2019-05-30T02:03:07.118Z,0.00
2019-05-30T02:04:07.300Z,0.00
2019-05-30T02:05:07.581Z,0.00
2019-05-30T02:06:07.340Z,0.00
2019-05-30T02:07:07.314Z,0.00
2019-05-30T02:08:07.287Z,0.00
2019-05-30T02:09:07.434Z,0.00
2019-05-30T02:10:07.407Z,0.00
2019-05-30T02:11:07.531Z,0.00
2019-05-30T02:12:07.632Z,0.00
2019-05-30T02:13:07.540Z,0.00
2019-05-30T02:14:07.729Z,0.00
2019-05-30T02:15:07.763Z,0.00
2019-05-30T02:16:07.848Z,0.00
2019-05-30T02:17:07.807Z,0.00
2019-05-30T02:18:07.695Z,0.00
2019-05-30T02:19:07.933Z,0.00
2019-05-30T02:20:07.849Z,0.00
2019-05-30T02:21:07.856Z,0.00
2019-05-30T02:22:07.726Z,0.00
2019-05-30T02:23:08.072Z,0.00
2019-05-30T02:24:07.933Z,0.00
2019-05-30T02:25:06.663Z,0.00
2019-05-30T02:26:06.657Z,0.00
2019-05-30T02:27:06.683Z,0.00
2019-05-30T02:28:06.634Z,0.00
2019-05-30T02:29:06.623Z,0.00
2019-05-30T02:30:09.317Z,0.00
2019-05-30T02:31:09.362Z,0.00
2019-05-30T02:32:07.034Z,0.00
2019-05-30T02:33:07.475Z,0.00
2019-05-30T02:34:07.525Z,0.00
2019-05-30T02:35:07.771Z,0.00
2019-05-30T02:36:08.495Z,0.00
2019-05-30T02:37:08.404Z,0.00
2019-05-30T02:38:07.395Z,0.00
2019-05-30T02:39:07.401Z,0.00
2019-05-30T02:40:09.897Z,0.00
2019-05-30T02:41:08.285Z,0.00
2019-05-30T02:42:07.344Z,0.00
2019-05-30T02:43:07.574Z,0.00
2019-05-30T02:44:07.755Z,0.00
2019-05-30T02:45:07.855Z,0.00
2019-05-30T02:46:08.021Z,0.00
2019-05-30T02:47:07.390Z,0.00
2019-05-30T02:48:07.381Z,0.00
2019-05-30T02:49:07.210Z,0.00
2019-05-30T02:50:08.432Z,0.00
2019-05-30T02:51:07.933Z,0.00
2019-05-30T02:52:07.248Z,0.00
2019-05-30T02:53:08.028Z,0.00
2019-05-30T02:54:08.566Z,0.00
2019-05-30T02:55:08.406Z,0.00
2019-05-30T02:56:07.773Z,0.00
2019-05-30T02:57:07.965Z,0.00
2019-05-30T02:58:08.057Z,0.00
2019-05-30T02:59:08.584Z,0.00
2019-05-30T03:00:08.192Z,0.00
2019-05-30T03:01:07.119Z,0.00
2019-05-30T03:02:09.921Z,0.00
2019-05-30T03:03:09.302Z,0.00
2019-05-30T03:04:08.146Z,0.00
2019-05-30T03:05:06.888Z,0.00
2019-05-30T03:06:08.588Z,0.00
2019-05-30T03:07:07.111Z,0.00
2019-05-30T03:08:08.794Z,0.00
2019-05-30T03:09:08.380Z,0.00
2019-05-30T03:10:07.557Z,0.00
2019-05-30T03:11:07.924Z,0.00
2019-05-30T03:12:08.191Z,0.00
2019-05-30T03:13:06.769Z,0.00
2019-05-30T03:14:08.482Z,0.00
2019-05-30T03:15:07.371Z,0.00
2019-05-30T03:16:07.389Z,0.00
2019-05-30T03:17:09.116Z,0.00
2019-05-30T03:18:08.055Z,0.00
2019-05-30T03:19:06.312Z,0.00
2019-05-30T03:20:18.296Z,0.00
2019-05-30T03:21:08.605Z,0.00
2019-05-30T03:22:06.906Z,0.00
2019-05-30T03:23:08.346Z,0.00
2019-05-30T03:24:07.614Z,0.00
2019-05-30T03:25:09.525Z,0.00
2019-05-30T03:26:09.251Z,0.00
2019-05-30T03:27:06.953Z,0.00
2019-05-30T03:28:07.575Z,0.00
2019-05-30T03:29:07.798Z,0.00
2019-05-30T03:30:15.807Z,0.00
2019-05-30T03:31:14.051Z,0.00
2019-05-30T03:32:51.423Z,0.00
2019-05-30T03:33:29.915Z,0.00
2019-05-30T03:34:13.954Z,0.00
2019-05-30T03:35:17.636Z,0.00
2019-05-30T03:36:17.991Z,0.00
2019-05-30T03:37:16.709Z,0.00
2019-05-30T03:38:08.720Z,0.00
2019-05-30T03:39:07.490Z,0.00
2019-05-30T03:40:05.859Z,0.00
2019-05-30T03:41:07.453Z,0.00
2019-05-30T03:42:07.062Z,0.00
2019-05-30T03:43:06.697Z,0.00
2019-05-30T03:44:06.202Z,0.00
2019-05-30T03:45:06.300Z,0.00
2019-05-30T03:46:06.241Z,0.00
2019-05-30T03:47:06.288Z,0.00
2019-05-30T03:48:06.714Z,0.00
2019-05-30T03:49:06.744Z,0.00
2019-05-30T03:50:07.311Z,0.00
2019-05-30T03:51:06.223Z,0.00
2019-05-30T03:52:08.167Z,0.00
2019-05-30T03:53:07.372Z,0.00
2019-05-30T03:54:07.675Z,0.00
2019-05-30T03:55:06.839Z,0.00
2019-05-30T03:56:06.640Z,0.00
2019-05-30T03:57:06.970Z,0.00
2019-05-30T03:58:05.767Z,0.00
2019-05-30T03:59:05.927Z,0.00
2019-05-30T04:00:06.180Z,0.00
2019-05-30T04:01:06.010Z,0.00
2019-05-30T04:02:06.439Z,0.00
2019-05-30T04:03:06.756Z,0.00
2019-05-30T04:04:06.521Z,0.00
2019-05-30T04:05:06.612Z,0.00
2019-05-30T04:06:07.261Z,0.00
2019-05-30T04:07:06.906Z,0.00
2019-05-30T04:08:06.958Z,0.00
2019-05-30T04:09:07.087Z,0.00
2019-05-30T04:10:07.190Z,0.00
2019-05-30T04:11:07.389Z,0.00
2019-05-30T04:12:07.592Z,0.00
2019-05-30T04:13:06.924Z,0.00
2019-05-30T04:14:06.903Z,0.00
2019-05-30T04:15:05.478Z,0.00
2019-05-30T04:16:06.898Z,0.00
2019-05-30T04:17:05.588Z,0.00
2019-05-30T04:18:06.921Z,0.00
2019-05-30T04:19:05.467Z,0.00
2019-05-30T04:20:07.016Z,0.00
2019-05-30T04:21:05.415Z,0.00
2019-05-30T04:22:07.204Z,0.00
2019-05-30T04:23:05.389Z,0.00
2019-05-30T04:24:07.122Z,0.00
2019-05-30T04:25:05.372Z,0.00
2019-05-30T04:26:05.363Z,0.00
2019-05-30T04:27:05.390Z,0.00
2019-05-30T04:28:05.337Z,0.00
2019-05-30T04:29:05.340Z,0.00
2019-05-30T04:30:05.315Z,0.00
2019-05-30T04:31:05.307Z,0.00
2019-05-30T04:32:05.292Z,0.00
2019-05-30T04:33:16.973Z,0.00
2019-05-30T04:34:06.266Z,0.00
2019-05-30T04:35:05.293Z,0.00
2019-05-30T04:36:05.249Z,0.00
2019-05-30T04:37:05.242Z,0.00
2019-05-30T04:38:05.289Z,0.00
2019-05-30T04:39:05.238Z,0.00
2019-05-30T04:40:05.207Z,0.00
2019-05-30T04:41:05.194Z,0.00
2019-05-30T04:42:05.186Z,0.00
2019-05-30T04:43:05.225Z,0.00
2019-05-30T04:44:05.160Z,0.00
2019-05-30T04:45:05.156Z,0.00
2019-05-30T04:46:05.157Z,0.00
2019-05-30T04:47:05.133Z,0.00
2019-05-30T04:48:05.139Z,0.00
2019-05-30T04:49:05.107Z,0.00
2019-05-30T04:50:05.097Z,0.00
2019-05-30T04:51:05.123Z,0.00
2019-05-30T04:52:05.096Z,0.00
2019-05-30T04:53:05.098Z,0.00
2019-05-30T04:54:05.058Z,0.00
2019-05-30T04:55:05.055Z,0.00
2019-05-30T04:56:05.031Z,0.00
2019-05-30T04:57:05.037Z,0.00
2019-05-30T04:58:05.048Z,0.00
2019-05-30T04:59:05.014Z,0.00
2019-05-30T05:00:04.995Z,0.00
2019-05-30T05:01:04.981Z,0.00
2019-05-30T05:02:04.965Z,0.00
2019-05-30T05:03:04.992Z,0.00
2019-05-30T05:04:04.951Z,0.00
2019-05-30T05:05:04.936Z,0.00
2019-05-30T05:06:04.924Z,0.00
2019-05-30T05:07:04.916Z,0.00
2019-05-30T05:08:04.903Z,0.00
2019-05-30T05:09:04.939Z,0.00
2019-05-30T05:10:04.889Z,0.00
2019-05-30T05:11:04.869Z,0.00
2019-05-30T05:12:04.860Z,0.00
2019-05-30T05:13:04.886Z,0.00
2019-05-30T05:14:04.839Z,0.00
2019-05-30T05:15:04.835Z,0.00
2019-05-30T05:16:21.884Z,0.00
2019-05-30T05:17:05.807Z,0.00
2019-05-30T05:18:04.834Z,0.00
2019-05-30T05:19:04.782Z,0.00
2019-05-30T05:20:04.777Z,0.00
2019-05-30T05:21:04.766Z,0.00
2019-05-30T05:22:04.756Z,0.00
2019-05-30T05:23:04.786Z,0.00
2019-05-30T05:24:04.735Z,0.00
2019-05-30T05:25:04.747Z,0.00
2019-05-30T05:26:04.725Z,0.00
2019-05-30T05:27:04.705Z,0.00
2019-05-30T05:28:04.723Z,0.00
2019-05-30T05:29:04.696Z,0.00
2019-05-30T05:30:04.675Z,0.00
2019-05-30T05:31:04.692Z,0.00
2019-05-30T05:32:04.647Z,0.00
2019-05-30T05:33:04.645Z,0.00
2019-05-30T05:34:04.655Z,0.00
2019-05-30T05:35:04.618Z,0.00
2019-05-30T05:36:04.604Z,0.00
2019-05-30T05:37:04.589Z,0.00
2019-05-30T05:38:04.621Z,0.00
2019-05-30T05:39:04.569Z,0.00
2019-05-30T05:40:04.557Z,0.00
2019-05-30T05:41:04.548Z,0.00
2019-05-30T05:42:04.586Z,0.00
2019-05-30T05:43:04.579Z,0.00
2019-05-30T05:44:04.539Z,0.00
2019-05-30T05:45:04.502Z,0.00
2019-05-30T05:46:04.494Z,0.00
2019-05-30T05:47:04.487Z,0.00
2019-05-30T05:48:04.492Z,0.00
2019-05-30T05:49:04.457Z,0.00
2019-05-30T05:50:04.444Z,0.00
2019-05-30T05:51:04.620Z,0.00
2019-05-30T05:52:04.432Z,0.00
2019-05-30T05:53:04.457Z,0.00
2019-05-30T05:54:04.414Z,0.00
2019-05-30T05:55:04.391Z,0.00
2019-05-30T05:56:04.412Z,0.00
2019-05-30T05:57:04.367Z,0.00
2019-05-30T05:58:04.464Z,0.00
2019-05-30T05:59:04.346Z,0.00
2019-05-30T06:00:04.346Z,0.00
2019-05-30T06:01:04.326Z,0.00
2019-05-30T06:02:04.355Z,0.00
2019-05-30T06:03:04.322Z,0.00
2019-05-30T06:04:13.251Z,0.00
2019-05-30T06:05:05.285Z,0.00
2019-05-30T06:06:04.277Z,0.00
2019-05-30T06:07:04.264Z,0.00
2019-05-30T06:08:04.272Z,0.00
2019-05-30T06:09:04.236Z,0.00
2019-05-30T06:10:04.253Z,0.00
2019-05-30T06:11:04.236Z,0.00
2019-05-30T06:12:04.207Z,0.00
2019-05-30T06:13:04.215Z,0.00
2019-05-30T06:14:04.185Z,0.00
2019-05-30T06:15:04.198Z,0.00
2019-05-30T06:16:04.166Z,0.00
2019-05-30T06:17:04.160Z,0.00
2019-05-30T06:18:04.194Z,0.00
2019-05-30T06:19:04.127Z,0.00
2019-05-30T06:20:04.114Z,0.00
2019-05-30T06:21:04.104Z,0.00
2019-05-30T06:22:04.096Z,0.00
2019-05-30T06:23:04.079Z,0.00
2019-05-30T06:24:04.104Z,0.00
2019-05-30T06:25:04.061Z,0.00
2019-05-30T06:26:04.057Z,0.00
2019-05-30T06:27:04.141Z,0.00
2019-05-30T06:28:04.045Z,0.00
2019-05-30T06:29:04.080Z,0.00
2019-05-30T06:30:04.067Z,0.00
2019-05-30T06:31:04.009Z,0.00
2019-05-30T06:32:04.003Z,0.00
2019-05-30T06:33:04.034Z,0.00
2019-05-30T06:34:03.961Z,0.00
2019-05-30T06:35:03.972Z,0.00
2019-05-30T06:36:03.940Z,0.00
2019-05-30T06:37:03.928Z,0.00
2019-05-30T06:38:03.967Z,0.00
2019-05-30T06:39:03.921Z,0.00
2019-05-30T06:40:03.918Z,0.00
2019-05-30T06:41:03.885Z,0.00
2019-05-30T06:42:03.933Z,0.00
2019-05-30T06:43:03.867Z,0.00
2019-05-30T06:44:05.792Z,0.00
2019-05-30T06:45:03.842Z,0.00
2019-05-30T06:46:03.830Z,0.00
2019-05-30T06:47:03.850Z,0.00
2019-05-30T06:48:03.854Z,0.00
2019-05-30T06:49:03.798Z,0.00
2019-05-30T06:50:03.789Z,0.00
2019-05-30T06:51:03.782Z,0.00
2019-05-30T06:52:03.770Z,0.00
2019-05-30T06:53:03.785Z,0.00
2019-05-30T06:54:03.751Z,0.00
2019-05-30T06:55:03.734Z,0.00
2019-05-30T06:56:03.742Z,0.00
2019-05-30T06:57:03.712Z,0.00
2019-05-30T06:58:03.743Z,0.00
2019-05-30T06:59:03.737Z,0.00
2019-05-30T07:00:03.677Z,0.00
2019-05-30T07:01:03.687Z,0.00
2019-05-30T07:02:03.658Z,0.00
2019-05-30T07:03:03.745Z,0.00
2019-05-30T07:04:03.977Z,0.00
2019-05-30T07:05:04.204Z,0.00
2019-05-30T07:06:03.985Z,0.00
2019-05-30T07:07:05.947Z,0.00
2019-05-30T07:08:03.593Z,0.00
2019-05-30T07:09:03.864Z,0.00
2019-05-30T07:10:03.579Z,0.00
2019-05-30T07:11:03.559Z,0.00
2019-05-30T07:12:03.549Z,0.00
2019-05-30T07:13:03.599Z,0.00
2019-05-30T07:14:03.557Z,0.00
2019-05-30T07:15:03.543Z,0.00
2019-05-30T07:16:03.506Z,0.00
2019-05-30T07:17:03.493Z,0.00
2019-05-30T07:18:03.482Z,0.00
2019-05-30T07:19:05.436Z,0.00
2019-05-30T07:20:03.466Z,0.00
2019-05-30T07:21:03.455Z,0.00
2019-05-30T07:22:03.439Z,0.00
2019-05-30T07:23:03.435Z,0.00
2019-05-30T07:24:03.440Z,0.00
2019-05-30T07:25:03.467Z,0.00
2019-05-30T07:26:03.790Z,0.00
2019-05-30T07:27:03.446Z,0.00
2019-05-30T07:28:03.431Z,0.00
2019-05-30T07:29:04.967Z,0.00
2019-05-30T07:30:03.686Z,0.00
2019-05-30T07:31:03.385Z,0.00
2019-05-30T07:32:05.458Z,0.00
2019-05-30T07:33:04.903Z,0.00
2019-05-30T07:34:03.336Z,0.00
2019-05-30T07:35:07.137Z,0.00
2019-05-30T07:36:03.495Z,0.00
2019-05-30T07:37:03.275Z,0.00
2019-05-30T07:38:03.268Z,0.00
2019-05-30T07:39:03.309Z,0.00
2019-05-30T07:40:03.243Z,0.00
2019-05-30T07:41:03.233Z,0.00
2019-05-30T07:42:06.618Z,0.00
2019-05-30T07:43:03.209Z,0.00
2019-05-30T07:44:03.204Z,0.00
2019-05-30T07:45:04.057Z,0.00
2019-05-30T07:46:03.276Z,0.00
2019-05-30T07:47:03.308Z,0.00
2019-05-30T07:48:03.198Z,0.00
2019-05-30T07:49:03.412Z,0.00
2019-05-30T07:50:03.309Z,0.00
2019-05-30T07:51:03.369Z,0.00
2019-05-30T07:52:03.229Z,0.00
2019-05-30T07:53:03.214Z,0.00
2019-05-30T07:54:03.335Z,0.00
2019-05-30T07:55:03.237Z,0.00
2019-05-30T07:56:03.178Z,0.00
2019-05-30T07:57:03.175Z,0.00
2019-05-30T07:58:03.282Z,0.00
2019-05-30T07:59:03.297Z,0.10
2019-05-30T08:00:03.150Z,0.10
2019-05-30T08:01:03.192Z,0.10
2019-05-30T08:02:03.120Z,0.10
2019-05-30T08:03:03.117Z,0.10
2019-05-30T08:04:03.245Z,0.10
2019-05-30T08:05:03.103Z,0.10
2019-05-30T08:06:03.106Z,0.10
2019-05-30T08:07:03.082Z,0.10
2019-05-30T08:08:03.091Z,0.20
2019-05-30T08:09:03.178Z,0.10
2019-05-30T08:10:03.046Z,0.20
2019-05-30T08:11:09.235Z,0.20
2019-05-30T08:12:04.022Z,0.20
2019-05-30T08:13:02.920Z,0.20
2019-05-30T08:14:02.950Z,0.20
2019-05-30T08:15:02.945Z,0.20
2019-05-30T08:16:03.032Z,0.20
2019-05-30T08:17:02.877Z,0.20
2019-05-30T08:18:02.883Z,0.20
2019-05-30T08:19:02.890Z,0.20
2019-05-30T08:20:02.936Z,0.20
2019-05-30T08:21:02.843Z,0.20
2019-05-30T08:22:02.902Z,0.20
2019-05-30T08:23:02.829Z,0.20
2019-05-30T08:24:02.959Z,0.20
2019-05-30T08:25:02.814Z,0.20
2019-05-30T08:26:02.802Z,0.20
2019-05-30T08:27:02.853Z,0.20
2019-05-30T08:28:02.841Z,0.20
2019-05-30T08:29:02.807Z,0.20
2019-05-30T08:30:02.781Z,0.20
2019-05-30T08:31:02.807Z,0.20
2019-05-30T08:32:02.738Z,0.20
2019-05-30T08:33:02.730Z,0.20
2019-05-30T08:34:02.746Z,0.20
2019-05-30T08:35:02.732Z,0.20
2019-05-30T08:36:05.541Z,0.20
2019-05-30T08:37:02.737Z,0.20
2019-05-30T08:38:02.693Z,0.20
2019-05-30T08:39:02.755Z,0.30
2019-05-30T08:40:02.711Z,0.30
2019-05-30T08:41:03.107Z,0.20
2019-05-30T08:42:02.654Z,0.20
2019-05-30T08:43:02.657Z,0.30
2019-05-30T08:44:02.662Z,0.30
2019-05-30T08:45:02.665Z,0.30
2019-05-30T08:46:02.629Z,0.30
2019-05-30T08:47:02.630Z,0.30
2019-05-30T08:48:02.601Z,0.30
2019-05-30T08:49:02.639Z,0.30
2019-05-30T08:50:02.585Z,0.30
2019-05-30T08:51:02.595Z,0.30
2019-05-30T08:52:02.578Z,0.30
2019-05-30T08:53:02.615Z,0.40
2019-05-30T08:54:02.595Z,0.30
2019-05-30T08:55:02.567Z,0.30
2019-05-30T08:56:02.593Z,0.30
2019-05-30T08:57:02.536Z,0.30
2019-05-30T08:58:02.526Z,0.30
2019-05-30T08:59:02.511Z,0.40
2019-05-30T09:00:02.528Z,0.40
2019-05-30T09:01:02.494Z,0.40
2019-05-30T09:02:02.487Z,0.40
2019-05-30T09:03:02.566Z,0.40
2019-05-30T09:04:02.523Z,0.40
2019-05-30T09:05:06.579Z,0.40
2019-05-30T09:06:04.134Z,0.40
2019-05-30T09:07:02.631Z,0.50
2019-05-30T09:08:02.464Z,0.50
2019-05-30T09:09:02.489Z,0.40
2019-05-30T09:10:02.567Z,0.50
2019-05-30T09:11:02.433Z,0.50
2019-05-30T09:12:02.408Z,0.60
2019-05-30T09:13:02.409Z,0.60
2019-05-30T09:14:02.434Z,0.60
2019-05-30T09:15:02.384Z,0.70
2019-05-30T09:16:02.380Z,0.70
2019-05-30T09:17:02.382Z,0.70
2019-05-30T09:18:02.365Z,0.70
2019-05-30T09:19:02.385Z,0.70
2019-05-30T09:20:02.349Z,0.70
2019-05-30T09:21:02.342Z,0.70
2019-05-30T09:22:02.361Z,0.70
2019-05-30T09:23:02.334Z,0.80
2019-05-30T09:24:02.357Z,0.80
2019-05-30T09:25:02.309Z,0.80
2019-05-30T09:26:02.301Z,0.90
2019-05-30T09:27:02.296Z,0.90
2019-05-30T09:28:02.284Z,0.90
2019-05-30T09:29:03.839Z,0.90
2019-05-30T09:30:02.275Z,1.10
2019-05-30T09:31:02.286Z,1.00
2019-05-30T09:32:02.260Z,1.10
2019-05-30T09:33:02.254Z,1.00
2019-05-30T09:34:02.271Z,1.20
2019-05-30T09:35:02.238Z,1.10
2019-05-30T09:36:12.627Z,1.20
2019-05-30T09:37:03.221Z,1.30
2019-05-30T09:38:02.241Z,1.30
2019-05-30T09:39:02.267Z,1.40
2019-05-30T09:40:02.197Z,1.40
2019-05-30T09:41:02.243Z,1.60
2019-05-30T09:42:02.191Z,1.70
2019-05-30T09:43:02.209Z,1.40
2019-05-30T09:44:02.210Z,1.60
2019-05-30T09:45:02.168Z,1.70
2019-05-30T09:46:02.159Z,1.40
2019-05-30T09:47:02.150Z,1.60
2019-05-30T09:48:02.282Z,1.50
2019-05-30T09:49:02.193Z,1.50
2019-05-30T09:50:03.906Z,1.40
2019-05-30T09:51:02.131Z,1.40
2019-05-30T09:52:02.114Z,1.50
2019-05-30T09:53:02.113Z,1.40
2019-05-30T09:54:02.141Z,1.50
2019-05-30T09:55:02.094Z,1.40
2019-05-30T09:56:02.093Z,1.70
2019-05-30T09:57:02.084Z,2.00
2019-05-30T09:58:02.081Z,2.00
2019-05-30T09:59:02.107Z,2.00
2019-05-30T10:00:02.073Z,1.90
2019-05-30T10:01:02.056Z,2.10
2019-05-30T10:02:02.062Z,2.20
2019-05-30T10:03:02.112Z,2.10
2019-05-30T10:04:02.038Z,2.00
2019-05-30T10:05:02.078Z,1.90
2019-05-30T10:06:02.018Z,2.00
2019-05-30T10:07:02.055Z,1.90
2019-05-30T10:08:02.007Z,2.00
2019-05-30T10:09:02.036Z,1.70
2019-05-30T10:10:01.991Z,1.60
2019-05-30T10:11:01.989Z,1.50
2019-05-30T10:12:01.980Z,1.50
2019-05-30T10:13:01.978Z,1.50
2019-05-30T10:14:02.001Z,1.40
2019-05-30T10:15:01.962Z,1.40
2019-05-30T10:16:01.997Z,1.30
2019-05-30T10:17:01.960Z,1.30
2019-05-30T10:18:01.947Z,1.10
2019-05-30T10:19:01.966Z,1.10
2019-05-30T10:20:01.929Z,0.90
2019-05-30T10:21:01.933Z,0.80
2019-05-30T10:22:01.954Z,0.80
2019-05-30T10:23:03.668Z,0.70
2019-05-30T10:24:02.213Z,0.60
2019-05-30T10:25:01.908Z,0.50
2019-05-30T10:26:01.909Z,0.40
2019-05-30T10:27:01.881Z,0.30
2019-05-30T10:28:01.872Z,0.30
2019-05-30T10:29:01.889Z,0.20
2019-05-30T10:30:01.942Z,0.20
2019-05-30T10:31:01.857Z,0.20
2019-05-30T10:32:01.850Z,0.20
2019-05-30T10:33:01.835Z,0.10
2019-05-30T10:34:01.855Z,0.10
2019-05-30T10:35:01.824Z,0.10
2019-05-30T10:36:01.815Z,0.00
2019-05-30T10:37:01.803Z,0.00
2019-05-30T10:38:01.795Z,0.00
2019-05-30T10:39:01.990Z,0.00
2019-05-30T10:40:01.773Z,0.00
2019-05-30T10:41:01.785Z,0.00
2019-05-30T10:42:01.773Z,0.00
2019-05-30T10:43:01.754Z,0.00
2019-05-30T10:44:01.792Z,0.00
2019-05-30T10:45:01.733Z,0.00
2019-05-30T10:46:01.719Z,0.00
2019-05-30T10:47:01.719Z,0.00
2019-05-30T10:48:01.701Z,0.00
2019-05-30T10:49:01.711Z,0.00
2019-05-30T10:50:01.682Z,0.00
2019-05-30T10:51:01.668Z,0.00
2019-05-30T10:52:01.658Z,0.00
2019-05-30T10:53:01.643Z,0.00
2019-05-30T10:54:01.672Z,0.00
2019-05-30T10:55:01.630Z,0.00
2019-05-30T10:56:01.613Z,0.00
2019-05-30T10:57:01.605Z,0.00
2019-05-30T10:58:01.598Z,0.00
2019-05-30T10:59:01.617Z,0.00
2019-05-30T11:00:01.572Z,0.00
2019-05-30T11:01:01.567Z,0.00
2019-05-30T11:02:01.558Z,0.00
2019-05-30T11:03:01.544Z,0.00
2019-05-30T11:04:01.533Z,0.00
2019-05-30T11:05:01.577Z,0.00
2019-05-30T11:06:01.515Z,0.00
2019-05-30T11:07:11.054Z,0.00
2019-05-30T11:08:06.122Z,0.00
2019-05-30T11:09:01.488Z,0.00
2019-05-30T11:10:01.481Z,0.00
2019-05-30T11:11:01.500Z,0.00
2019-05-30T11:12:01.455Z,0.00
2019-05-30T11:13:05.782Z,0.00
2019-05-30T11:14:01.473Z,0.00
2019-05-30T11:15:01.440Z,0.00
2019-05-30T11:16:01.409Z,0.00
2019-05-30T11:17:01.395Z,0.00
2019-05-30T11:18:01.385Z,0.00
2019-05-30T11:19:06.841Z,0.00
2019-05-30T11:20:02.363Z,0.00
2019-05-30T11:21:01.396Z,0.00
2019-05-30T11:22:01.346Z,0.00
2019-05-30T11:23:01.419Z,0.00
2019-05-30T11:24:01.349Z,0.00
2019-05-30T11:25:01.336Z,0.00
2019-05-30T11:26:01.301Z,0.00
2019-05-30T11:27:01.455Z,0.00
2019-05-30T11:28:01.283Z,0.00
2019-05-30T11:29:01.330Z,0.00
2019-05-30T11:30:01.269Z,0.00
2019-05-30T11:31:04.381Z,0.00
2019-05-30T11:32:01.242Z,0.00
2019-05-30T11:33:01.223Z,0.00
2019-05-30T11:34:01.214Z,0.00
2019-05-30T11:35:01.208Z,0.00
2019-05-30T11:36:01.196Z,0.00
2019-05-30T11:37:18.091Z,0.00
2019-05-30T11:38:02.231Z,0.00
2019-05-30T11:39:01.168Z,0.00
2019-05-30T11:40:01.173Z,0.00
2019-05-30T11:41:01.146Z,0.00
2019-05-30T11:42:01.132Z,0.00
2019-05-30T11:43:01.168Z,0.00
2019-05-30T11:44:04.066Z,0.00
2019-05-30T11:45:01.097Z,0.00
2019-05-30T11:46:01.083Z,0.00
2019-05-30T11:47:01.073Z,0.00
2019-05-30T11:48:01.136Z,0.00
2019-05-30T11:49:01.099Z,0.00
2019-05-30T11:50:01.077Z,0.00
2019-05-30T11:51:01.040Z,0.00
2019-05-30T11:52:01.043Z,0.00
2019-05-30T11:53:01.038Z,0.00
2019-05-30T11:54:01.219Z,0.00
2019-05-30T11:55:00.992Z,0.00
2019-05-30T11:56:00.979Z,0.00
2019-05-30T11:57:00.966Z,0.00
2019-05-30T11:58:00.964Z,0.00
2019-05-30T11:59:00.953Z,0.00
2019-05-30T12:00:00.973Z,0.00
2019-05-30T12:01:00.939Z,0.00
2019-05-30T12:02:09.557Z,0.00
2019-05-30T12:03:00.916Z,0.00
2019-05-30T12:04:00.894Z,0.00
2019-05-30T12:05:02.786Z,0.00
2019-05-30T12:06:00.911Z,0.00
2019-05-30T12:07:00.988Z,0.00
2019-05-30T12:08:01.031Z,0.00
2019-05-30T12:09:01.177Z,0.00
2019-05-30T12:10:01.139Z,0.00
2019-05-30T12:11:01.400Z,0.00
2019-05-30T12:12:01.467Z,0.00
2019-05-30T12:13:01.621Z,0.00
2019-05-30T12:14:01.502Z,0.00
2019-05-30T12:15:01.592Z,0.00
2019-05-30T12:16:01.842Z,0.00
2019-05-30T12:17:01.515Z,0.00
2019-05-30T12:18:02.462Z,0.00
2019-05-30T12:19:01.909Z,0.00
2019-05-30T12:20:01.920Z,0.00
2019-05-30T12:21:01.987Z,0.00
2019-05-30T12:22:00.696Z,0.00
2019-05-30T12:23:00.691Z,0.00
2019-05-30T12:24:00.678Z,0.00
2019-05-30T12:25:00.770Z,0.00
2019-05-30T12:26:00.716Z,0.00
2019-05-30T12:27:00.667Z,0.00
2019-05-30T12:28:00.633Z,0.00
2019-05-30T12:29:00.663Z,0.00
2019-05-30T12:30:00.609Z,0.00
2019-05-30T12:31:04.605Z,0.00
2019-05-30T12:32:02.222Z,0.00
2019-05-30T12:33:00.578Z,0.00
2019-05-30T12:34:00.612Z,0.00
2019-05-30T12:35:00.587Z,0.00
2019-05-30T12:36:00.707Z,0.00
2019-05-30T12:37:00.628Z,0.00
2019-05-30T12:38:04.285Z,0.00
2019-05-30T12:39:02.669Z,0.00
2019-05-30T12:40:00.703Z,0.00
2019-05-30T12:41:00.892Z,0.00
2019-05-30T12:42:01.264Z,0.00
2019-05-30T12:43:01.547Z,0.00
2019-05-30T12:44:01.350Z,0.00
2019-05-30T12:45:05.457Z,0.00
2019-05-30T12:46:01.513Z,0.00
2019-05-30T12:47:01.309Z,0.00
2019-05-30T12:48:01.307Z,0.00
2019-05-30T12:49:01.529Z,0.00
2019-05-30T12:50:01.415Z,0.00
2019-05-30T12:51:01.468Z,0.00
2019-05-30T12:52:00.649Z,0.00
2019-05-30T12:53:01.964Z,0.00
2019-05-30T12:54:00.568Z,0.00
2019-05-30T12:55:00.864Z,0.00
2019-05-30T12:56:00.633Z,0.00
2019-05-30T12:57:00.656Z,0.00
2019-05-30T12:58:00.765Z,0.00
2019-05-30T12:59:01.107Z,0.00
2019-05-30T13:00:00.943Z,0.00
2019-05-30T13:01:00.883Z,0.00
2019-05-30T13:02:01.262Z,0.00
2019-05-30T13:03:00.853Z,0.00
2019-05-30T13:04:01.138Z,0.00
2019-05-30T13:05:00.966Z,0.00
2019-05-30T13:06:01.137Z,0.00
2019-05-30T13:07:01.288Z,0.00
2019-05-30T13:08:14.070Z,0.00
2019-05-30T13:09:01.226Z,0.00
2019-05-30T13:10:01.289Z,0.00
2019-05-30T13:11:01.528Z,0.00
2019-05-30T13:12:00.630Z,0.00
2019-05-30T13:13:00.145Z,0.00
2019-05-30T13:14:00.684Z,0.00
2019-05-30T13:15:00.154Z,0.00
2019-05-30T13:16:02.853Z,0.00
2019-05-30T13:17:01.859Z,0.00
2019-05-30T13:18:00.893Z,0.00